createdAt,value
2019-02-28T00:02:21.444Z,38.62
2019-02-28T00:07:23.917Z,32.90
2019-02-28T00:12:31.525Z,34.92
2019-02-28T00:17:42.757Z,37.39
2019-02-28T00:22:49.192Z,35.52
2019-02-28T00:27:53.520Z,33.61
2019-02-28T00:33:01.129Z,28.60
2019-02-28T00:38:08.769Z,24.62
2019-02-28T00:43:16.382Z,22.41
2019-02-28T00:48:24.045Z,24.52
2019-02-28T00:53:31.619Z,23.55
2019-02-28T00:58:39.242Z,21.59
2019-02-28T01:03:46.834Z,24.07
2019-02-28T01:08:56.124Z,22.39
2019-02-28T01:14:02.385Z,22.66
2019-02-28T01:19:09.902Z,24.72
2019-02-28T01:24:16.024Z,24.10
2019-02-28T01:29:23.722Z,23.34
2019-02-28T01:34:32.184Z,25.56
2019-02-28T01:39:38.536Z,24.36
2019-02-28T01:44:46.149Z,24.69
2019-02-28T01:49:53.816Z,23.81
2019-02-28T01:55:01.399Z,27.32
2019-02-28T02:00:09.066Z,26.22
2019-02-28T02:05:17.296Z,27.01
2019-02-28T02:10:23.879Z,27.53
2019-02-28T02:15:31.498Z,27.16
2019-02-28T02:20:39.171Z,26.26
2019-02-28T02:25:46.752Z,26.38
2019-02-28T02:30:54.429Z,26.54
2019-02-28T02:36:02.024Z,28.23
2019-02-28T02:41:09.695Z,27.66
2019-02-28T02:46:20.179Z,29.38
2019-02-28T02:51:24.426Z,27.07
2019-02-28T02:56:32.027Z,28.77
2019-02-28T03:01:39.700Z,28.93
2019-02-28T03:06:47.306Z,29.63
2019-02-28T03:11:57.679Z,30.61
2019-02-28T03:17:09.750Z,29.71
2019-02-28T03:22:09.310Z,32.33
2019-02-28T03:27:19.079Z,30.35
2019-02-28T03:32:24.126Z,32.20
2019-02-28T03:37:33.207Z,31.44
2019-02-28T03:42:38.914Z,31.76
2019-02-28T03:47:46.369Z,32.13
2019-02-28T03:52:54.055Z,31.12
2019-02-28T03:58:05.462Z,35.65
2019-02-28T04:03:08.814Z,34.12
2019-02-28T04:08:16.438Z,36.95
2019-02-28T04:13:24.142Z,37.43
2019-02-28T04:18:31.763Z,37.87
2019-02-28T04:23:39.470Z,37.04
2019-02-28T04:28:53.507Z,37.05
2019-02-28T04:33:54.251Z,34.02
2019-02-28T04:39:01.835Z,37.77
2019-02-28T04:44:09.507Z,37.19
2019-02-28T04:49:21.850Z,36.35
2019-02-28T04:54:24.555Z,37.88
2019-02-28T04:59:31.630Z,38.26
2019-02-28T05:04:38.595Z,39.91
2019-02-28T05:09:48.106Z,43.48
2019-02-28T05:14:55.237Z,44.65
2019-02-28T05:20:00.622Z,42.36
2019-02-28T05:25:08.276Z,44.05
2019-02-28T05:30:19.507Z,46.36
2019-02-28T05:35:26.650Z,47.79
2019-02-28T05:40:30.192Z,48.73
2019-02-28T05:45:37.842Z,47.77
2019-02-28T05:50:46.839Z,50.47
2019-02-28T05:55:52.631Z,48.39
2019-02-28T06:01:00.267Z,50.19
2019-02-28T06:06:08.133Z,50.08
2019-02-28T06:11:15.615Z,48.58
2019-02-28T06:16:23.243Z,50.90
2019-02-28T06:21:30.845Z,54.07
2019-02-28T06:26:38.553Z,50.61
2019-02-28T06:31:48.777Z,47.55
2019-02-28T06:36:53.487Z,49.99
2019-02-28T06:42:01.109Z,50.65
2019-02-28T06:47:11.284Z,52.20
2019-02-28T06:52:15.914Z,50.51
2019-02-28T06:57:26.702Z,47.87
2019-02-28T07:02:31.486Z,46.70
2019-02-28T07:07:37.893Z,49.29
2019-02-28T07:12:45.499Z,48.29
2019-02-28T07:17:53.143Z,47.37
2019-02-28T07:23:00.740Z,47.67
2019-02-28T07:28:08.467Z,49.98
2019-02-28T07:33:16.101Z,50.41
2019-02-28T07:38:25.622Z,46.88
2019-02-28T07:43:30.975Z,49.59
2019-02-28T07:48:38.663Z,45.66
2019-02-28T07:53:46.299Z,45.36
2019-02-28T07:58:54.117Z,43.61
2019-02-28T08:04:01.761Z,44.87
2019-02-28T08:09:09.545Z,41.55
2019-02-28T08:14:17.205Z,41.74
2019-02-28T08:19:27.150Z,42.87
2019-02-28T08:24:32.022Z,40.71
2019-02-28T08:29:44.694Z,40.26
2019-02-28T08:34:46.973Z,39.47
2019-02-28T08:39:54.678Z,41.22
2019-02-28T08:45:02.298Z,39.65
2019-02-28T08:50:09.943Z,37.48
2019-02-28T08:55:17.563Z,37.68
2019-02-28T09:00:31.252Z,39.11
2019-02-28T09:05:32.398Z,42.54
2019-02-28T09:10:40.074Z,38.82
2019-02-28T09:15:47.696Z,38.83
2019-02-28T09:20:55.352Z,38.10
2019-02-28T09:26:03.512Z,38.15
2019-02-28T09:31:13.153Z,35.26
2019-02-28T09:36:10.732Z,36.38
2019-02-28T09:41:19.079Z,36.23
2019-02-28T09:46:25.557Z,34.43
2019-02-28T09:51:33.211Z,34.42
2019-02-28T09:56:41.116Z,33.22
2019-02-28T10:01:48.079Z,32.80
2019-02-28T10:06:56.894Z,33.76
2019-02-28T10:12:04.672Z,33.74
2019-02-28T10:17:10.030Z,33.65
2019-02-28T10:22:17.710Z,33.64
2019-02-28T10:27:26.869Z,33.50
2019-02-28T10:32:32.481Z,32.61
2019-02-28T10:37:40.059Z,31.60
2019-02-28T10:42:49.481Z,31.97
2019-02-28T10:47:54.903Z,32.31
2019-02-28T10:53:05.439Z,32.68
2019-02-28T10:58:12.528Z,30.66
2019-02-28T11:03:16.920Z,29.60
2019-02-28T11:08:24.518Z,28.95
2019-02-28T11:13:32.972Z,30.46
2019-02-28T11:18:41.873Z,31.58
2019-02-28T11:23:49.599Z,33.66
2019-02-28T11:28:53.747Z,36.37
2019-02-28T11:34:01.378Z,41.11
2019-02-28T11:39:08.990Z,38.20
2019-02-28T11:44:16.671Z,42.28
2019-02-28T11:49:25.609Z,42.20
2019-02-28T11:54:31.450Z,41.10
2019-02-28T11:59:39.062Z,38.34
2019-02-28T12:04:46.727Z,40.07
2019-02-28T12:09:54.710Z,42.87
2019-02-28T12:15:02.745Z,43.21
2019-02-28T12:20:08.658Z,44.19
2019-02-28T12:25:16.321Z,44.46
2019-02-28T12:30:25.092Z,46.14
2019-02-28T12:35:37.415Z,47.32
2019-02-28T12:40:38.177Z,46.92
2019-02-28T12:45:47.401Z,48.30
2019-02-28T12:50:53.025Z,48.29
2019-02-28T12:56:00.751Z,49.97
2019-02-28T13:01:08.355Z,52.02
2019-02-28T13:06:16.018Z,51.80
2019-02-28T13:11:23.628Z,48.97
2019-02-28T13:16:31.243Z,47.61
2019-02-28T13:21:38.842Z,43.59
2019-02-28T13:26:46.544Z,38.32
2019-02-28T13:31:54.152Z,40.00
2019-02-28T13:37:03.158Z,35.06
2019-02-28T13:42:09.013Z,37.60
2019-02-28T13:47:16.671Z,37.85
2019-02-28T13:52:24.286Z,38.37
2019-02-28T13:57:31.937Z,40.91
2019-02-28T14:02:39.552Z,49.66
2019-02-28T14:07:47.030Z,46.67
2019-02-28T14:12:57.103Z,40.23
2019-02-28T14:18:01.830Z,41.30
2019-02-28T14:23:09.438Z,40.78
2019-02-28T14:28:17.083Z,43.67
2019-02-28T14:33:24.714Z,45.82
2019-02-28T14:38:32.775Z,41.79
2019-02-28T14:43:39.626Z,45.05
2019-02-28T14:48:47.322Z,40.53
2019-02-28T14:53:54.926Z,41.94
2019-02-28T14:59:02.634Z,40.05
2019-02-28T15:04:10.285Z,38.01
2019-02-28T15:09:17.924Z,34.33
2019-02-28T15:14:25.556Z,34.24
2019-02-28T15:19:33.185Z,33.80
2019-02-28T15:24:43.672Z,31.46
2019-02-28T15:29:47.992Z,31.87
2019-02-28T15:34:55.609Z,31.00
2019-02-28T15:40:03.298Z,30.34
2019-02-28T15:45:10.907Z,29.40
2019-02-28T15:50:18.634Z,25.93
2019-02-28T15:55:26.216Z,28.15
2019-02-28T16:00:33.954Z,26.53
2019-02-28T16:05:44.080Z,23.49
2019-02-28T16:10:53.444Z,21.54
2019-02-28T16:15:55.876Z,21.87
2019-02-28T16:21:06.884Z,19.68
2019-02-28T16:26:10.881Z,20.35
2019-02-28T16:31:18.788Z,18.55
2019-02-28T16:36:26.607Z,18.85
2019-02-28T16:41:33.691Z,17.17
2019-02-28T16:46:40.582Z,16.98
2019-02-28T16:51:48.267Z,15.36
2019-02-28T16:56:55.870Z,16.16
2019-02-28T17:02:03.551Z,13.64
2019-02-28T17:07:11.168Z,15.34
2019-02-28T17:12:18.822Z,12.68
2019-02-28T17:17:26.411Z,12.78
2019-02-28T17:22:34.114Z,11.05
2019-02-28T17:27:42.207Z,11.16
2019-02-28T17:32:48.926Z,13.28
2019-02-28T17:37:59.899Z,12.94
2019-02-28T17:43:03.757Z,11.42
2019-02-28T17:48:12.823Z,10.22
2019-02-28T17:53:18.758Z,10.82
2019-02-28T17:58:27.493Z,11.92
2019-02-28T18:03:33.799Z,11.11
2019-02-28T18:08:41.763Z,10.59
2019-02-28T18:13:52.219Z,10.73
2019-02-28T18:18:56.586Z,12.83
2019-02-28T18:24:05.196Z,10.88
2019-02-28T18:29:11.982Z,10.99
2019-02-28T18:34:20.670Z,10.78
2019-02-28T18:39:26.818Z,11.03
2019-02-28T18:44:37.451Z,10.61
2019-02-28T18:49:42.350Z,10.19
2019-02-28T18:54:49.989Z,9.85
2019-02-28T18:59:57.604Z,11.43
2019-02-28T19:05:07.001Z,11.56
2019-02-28T19:10:12.387Z,11.35
2019-02-28T19:15:20.186Z,10.06
2019-02-28T19:20:27.800Z,11.73
2019-02-28T19:25:35.482Z,12.65
2019-02-28T19:30:43.059Z,11.65
2019-02-28T19:35:50.773Z,11.01
2019-02-28T19:40:58.390Z,10.68
2019-02-28T19:46:06.083Z,8.36
2019-02-28T19:51:13.714Z,9.06
2019-02-28T19:56:21.479Z,9.85
2019-02-28T20:01:29.100Z,9.12
2019-02-28T20:06:36.725Z,10.16
2019-02-28T20:11:44.362Z,10.22
2019-02-28T20:16:52.072Z,9.95
2019-02-28T20:21:59.683Z,10.08
2019-02-28T20:27:07.394Z,11.78
2019-02-28T20:32:15.052Z,10.63
2019-02-28T20:37:22.571Z,10.30
2019-02-28T20:42:30.186Z,11.36
2019-02-28T20:47:37.883Z,10.06
2019-02-28T20:52:45.488Z,10.69
2019-02-28T20:57:53.226Z,11.01
2019-02-28T21:03:00.866Z,12.16
2019-02-28T21:08:08.493Z,11.91
2019-02-28T21:13:18.126Z,10.47
2019-02-28T21:18:25.842Z,12.03
2019-02-28T21:23:33.458Z,11.02
2019-02-28T21:28:41.149Z,9.33
2019-02-28T21:33:48.758Z,12.01
2019-02-28T21:38:56.586Z,11.96
2019-02-28T21:44:04.196Z,12.93
2019-02-28T21:49:11.881Z,16.14
2019-02-28T21:54:19.508Z,19.48
2019-02-28T21:59:27.132Z,20.25
2019-02-28T22:04:34.734Z,17.21
2019-02-28T22:09:42.371Z,18.37
2019-02-28T22:14:50.013Z,19.93
2019-02-28T22:19:57.691Z,19.91
2019-02-28T22:25:05.345Z,20.08
2019-02-28T22:30:12.975Z,21.12
2019-02-28T22:35:20.597Z,49.63
2019-02-28T22:40:28.291Z,24.20
2019-02-28T22:45:35.868Z,24.90
2019-02-28T22:50:43.528Z,22.39
2019-02-28T22:55:51.118Z,23.12
2019-02-28T23:00:58.803Z,19.54
2019-02-28T23:06:06.392Z,21.24
2019-02-28T23:11:14.097Z,18.95
2019-02-28T23:16:21.785Z,21.29
2019-02-28T23:21:29.444Z,19.27
2019-02-28T23:26:37.026Z,18.25
2019-02-28T23:31:44.744Z,17.43
2019-02-28T23:36:52.373Z,17.42
2019-02-28T23:42:00.007Z,17.80
2019-02-28T23:47:07.657Z,15.25
2019-02-28T23:52:15.331Z,13.53
2019-02-28T23:57:22.924Z,12.36
